sensor_id;sensor_type;location;lat;lon;timestamp;temperature;humidity
14733;DHT22;7457;50.960;6.830;2023-01-08T00:02:16;10.40;81.00
14733;DHT22;7457;50.960;6.830;2023-01-08T00:04:41;10.30;81.20
14733;DHT22;7457;50.960;6.830;2023-01-08T00:07:07;10.30;81.30
14733;DHT22;7457;50.960;6.830;2023-01-08T00:09:32;10.30;81.40
14733;DHT22;7457;50.960;6.830;2023-01-08T00:11:58;10.30;81.50
14733;DHT22;7457;50.960;6.830;2023-01-08T00:14:24;10.30;81.60
14733;DHT22;7457;50.960;6.830;2023-01-08T00:16:49;10.30;81.80
14733;DHT22;7457;50.960;6.830;2023-01-08T00:19:16;10.30;82.00
14733;DHT22;7457;50.960;6.830;2023-01-08T00:21:42;10.20;82.20
14733;DHT22;7457;50.960;6.830;2023-01-08T00:24:07;10.20;82.30
14733;DHT22;7457;50.960;6.830;2023-01-08T00:26:33;10.20;82.60
14733;DHT22;7457;50.960;6.830;2023-01-08T00:28:59;10.10;82.80
14733;DHT22;7457;50.960;6.830;2023-01-08T00:31:24;10.10;82.90
14733;DHT22;7457;50.960;6.830;2023-01-08T00:33:50;10.10;83.10
14733;DHT22;7457;50.960;6.830;2023-01-08T00:36:17;10.00;83.30
14733;DHT22;7457;50.960;6.830;2023-01-08T00:38:44;10.00;83.50
14733;DHT22;7457;50.960;6.830;2023-01-08T00:41:12;10.00;83.60
14733;DHT22;7457;50.960;6.830;2023-01-08T00:43:38;10.00;83.80
14733;DHT22;7457;50.960;6.830;2023-01-08T00:46:04;10.00;83.70
14733;DHT22;7457;50.960;6.830;2023-01-08T00:48:30;10.00;83.80
14733;DHT22;7457;50.960;6.830;2023-01-08T00:51:00;10.00;83.90
14733;DHT22;7457;50.960;6.830;2023-01-08T00:53:26;10.00;84.00
14733;DHT22;7457;50.960;6.830;2023-01-08T00:55:59;9.90;84.10
14733;DHT22;7457;50.960;6.830;2023-01-08T00:58:24;9.90;84.20
14733;DHT22;7457;50.960;6.830;2023-01-08T01:00:50;10.00;84.30
14733;DHT22;7457;50.960;6.830;2023-01-08T01:03:16;10.00;84.40
14733;DHT22;7457;50.960;6.830;2023-01-08T01:05:41;10.00;84.40
14733;DHT22;7457;50.960;6.830;2023-01-08T01:08:07;10.10;84.30
14733;DHT22;7457;50.960;6.830;2023-01-08T01:10:32;10.10;84.20
14733;DHT22;7457;50.960;6.830;2023-01-08T01:12:58;10.10;84.10
14733;DHT22;7457;50.960;6.830;2023-01-08T01:15:24;10.10;84.10
14733;DHT22;7457;50.960;6.830;2023-01-08T01:17:49;10.20;83.90
14733;DHT22;7457;50.960;6.830;2023-01-08T01:20:16;10.20;83.80
14733;DHT22;7457;50.960;6.830;2023-01-08T01:22:42;10.30;83.60
14733;DHT22;7457;50.960;6.830;2023-01-08T01:25:08;10.30;83.50
14733;DHT22;7457;50.960;6.830;2023-01-08T01:27:34;10.30;83.40
14733;DHT22;7457;50.960;6.830;2023-01-08T01:30:00;10.30;83.40
14733;DHT22;7457;50.960;6.830;2023-01-08T01:32:26;10.30;83.40
14733;DHT22;7457;50.960;6.830;2023-01-08T01:34:51;10.30;83.40
14733;DHT22;7457;50.960;6.830;2023-01-08T01:37:17;10.30;83.40
14733;DHT22;7457;50.960;6.830;2023-01-08T01:39:43;10.30;83.40
14733;DHT22;7457;50.960;6.830;2023-01-08T01:42:15;10.30;83.40
14733;DHT22;7457;50.960;6.830;2023-01-08T01:44:59;10.30;83.50
14733;DHT22;7457;50.960;6.830;2023-01-08T01:47:39;10.30;83.40
14733;DHT22;7457;50.960;6.830;2023-01-08T01:52:36;10.30;83.40
14733;DHT22;7457;50.960;6.830;2023-01-08T01:55:03;10.30;83.60
14733;DHT22;7457;50.960;6.830;2023-01-08T01:57:30;10.20;83.70
14733;DHT22;7457;50.960;6.830;2023-01-08T01:59:58;10.10;84.00
14733;DHT22;7457;50.960;6.830;2023-01-08T02:02:24;10.10;84.40
14733;DHT22;7457;50.960;6.830;2023-01-08T02:04:50;10.00;84.80
14733;DHT22;7457;50.960;6.830;2023-01-08T02:07:47;9.90;85.00
14733;DHT22;7457;50.960;6.830;2023-01-08T02:10:21;9.90;85.10
14733;DHT22;7457;50.960;6.830;2023-01-08T02:12:55;9.90;85.40
14733;DHT22;7457;50.960;6.830;2023-01-08T02:18:16;9.80;85.90
14733;DHT22;7457;50.960;6.830;2023-01-08T02:20:46;9.80;86.10
14733;DHT22;7457;50.960;6.830;2023-01-08T02:23:34;9.80;86.20
14733;DHT22;7457;50.960;6.830;2023-01-08T02:28:51;9.70;86.50
14733;DHT22;7457;50.960;6.830;2023-01-08T02:31:20;9.70;86.80
14733;DHT22;7457;50.960;6.830;2023-01-08T02:33:46;9.70;87.00
14733;DHT22;7457;50.960;6.830;2023-01-08T02:44:49;9.70;87.80
14733;DHT22;7457;50.960;6.830;2023-01-08T02:47:28;9.70;88.10
14733;DHT22;7457;50.960;6.830;2023-01-08T02:50:12;9.60;88.20
14733;DHT22;7457;50.960;6.830;2023-01-08T02:55:17;9.60;88.70
14733;DHT22;7457;50.960;6.830;2023-01-08T02:57:45;9.60;88.80
14733;DHT22;7457;50.960;6.830;2023-01-08T03:00:11;9.60;89.00
14733;DHT22;7457;50.960;6.830;2023-01-08T03:02:38;9.60;89.20
14733;DHT22;7457;50.960;6.830;2023-01-08T03:05:12;9.60;89.30
14733;DHT22;7457;50.960;6.830;2023-01-08T03:07:38;9.60;89.40
14733;DHT22;7457;50.960;6.830;2023-01-08T03:10:05;9.70;89.30
14733;DHT22;7457;50.960;6.830;2023-01-08T03:12:42;9.70;89.40
14733;DHT22;7457;50.960;6.830;2023-01-08T03:15:14;9.70;89.50
14733;DHT22;7457;50.960;6.830;2023-01-08T03:17:44;9.60;89.50
14733;DHT22;7457;50.960;6.830;2023-01-08T03:20:14;9.70;89.60
14733;DHT22;7457;50.960;6.830;2023-01-08T03:22:44;9.60;89.80
14733;DHT22;7457;50.960;6.830;2023-01-08T03:25:12;9.60;89.90
14733;DHT22;7457;50.960;6.830;2023-01-08T03:27:42;9.60;90.00
14733;DHT22;7457;50.960;6.830;2023-01-08T03:30:11;9.60;90.10
14733;DHT22;7457;50.960;6.830;2023-01-08T03:32:38;9.60;90.20
14733;DHT22;7457;50.960;6.830;2023-01-08T03:35:07;9.60;90.20
14733;DHT22;7457;50.960;6.830;2023-01-08T03:37:38;9.60;90.30
14733;DHT22;7457;50.960;6.830;2023-01-08T03:40:07;9.60;90.30
14733;DHT22;7457;50.960;6.830;2023-01-08T03:42:33;9.60;90.30
14733;DHT22;7457;50.960;6.830;2023-01-08T03:44:59;9.60;90.40
14733;DHT22;7457;50.960;6.830;2023-01-08T03:47:27;9.60;90.50
14733;DHT22;7457;50.960;6.830;2023-01-08T03:49:54;9.60;90.60
14733;DHT22;7457;50.960;6.830;2023-01-08T03:52:26;9.60;90.60
14733;DHT22;7457;50.960;6.830;2023-01-08T03:54:52;9.60;90.80
14733;DHT22;7457;50.960;6.830;2023-01-08T03:57:18;9.50;90.90
14733;DHT22;7457;50.960;6.830;2023-01-08T03:59:44;9.50;90.90
14733;DHT22;7457;50.960;6.830;2023-01-08T04:02:10;9.60;90.90
14733;DHT22;7457;50.960;6.830;2023-01-08T04:04:36;9.50;90.90
14733;DHT22;7457;50.960;6.830;2023-01-08T04:07:01;9.50;91.00
14733;DHT22;7457;50.960;6.830;2023-01-08T04:09:27;9.50;91.00
14733;DHT22;7457;50.960;6.830;2023-01-08T04:11:52;9.50;91.00
14733;DHT22;7457;50.960;6.830;2023-01-08T04:14:18;9.50;91.00
14733;DHT22;7457;50.960;6.830;2023-01-08T04:16:44;9.50;90.70
14733;DHT22;7457;50.960;6.830;2023-01-08T04:19:11;9.60;90.20
14733;DHT22;7457;50.960;6.830;2023-01-08T04:21:37;9.60;89.60
14733;DHT22;7457;50.960;6.830;2023-01-08T04:24:03;9.80;89.00
14733;DHT22;7457;50.960;6.830;2023-01-08T04:26:29;9.80;88.40
14733;DHT22;7457;50.960;6.830;2023-01-08T04:28:54;9.90;87.90
14733;DHT22;7457;50.960;6.830;2023-01-08T04:31:20;9.90;87.60
14733;DHT22;7457;50.960;6.830;2023-01-08T04:33:45;9.90;87.30
14733;DHT22;7457;50.960;6.830;2023-01-08T04:36:11;9.90;87.00
14733;DHT22;7457;50.960;6.830;2023-01-08T04:38:37;9.90;86.80
14733;DHT22;7457;50.960;6.830;2023-01-08T04:41:03;9.90;86.60
14733;DHT22;7457;50.960;6.830;2023-01-08T04:43:29;10.00;86.50
14733;DHT22;7457;50.960;6.830;2023-01-08T04:45:59;9.90;86.40
14733;DHT22;7457;50.960;6.830;2023-01-08T04:48:26;10.00;86.20
14733;DHT22;7457;50.960;6.830;2023-01-08T04:50:52;10.00;86.10
14733;DHT22;7457;50.960;6.830;2023-01-08T04:53:17;10.00;85.90
14733;DHT22;7457;50.960;6.830;2023-01-08T04:55:43;9.90;85.80
14733;DHT22;7457;50.960;6.830;2023-01-08T04:58:09;9.90;85.60
14733;DHT22;7457;50.960;6.830;2023-01-08T05:00:35;10.00;85.30
14733;DHT22;7457;50.960;6.830;2023-01-08T05:03:00;10.00;85.30
14733;DHT22;7457;50.960;6.830;2023-01-08T05:05:27;10.00;85.20
14733;DHT22;7457;50.960;6.830;2023-01-08T05:07:53;10.00;85.10
14733;DHT22;7457;50.960;6.830;2023-01-08T05:10:18;10.00;85.00
14733;DHT22;7457;50.960;6.830;2023-01-08T05:12:44;10.00;84.90
14733;DHT22;7457;50.960;6.830;2023-01-08T05:15:10;9.90;84.90
14733;DHT22;7457;50.960;6.830;2023-01-08T05:17:35;9.90;84.80
14733;DHT22;7457;50.960;6.830;2023-01-08T05:20:01;9.90;84.70
14733;DHT22;7457;50.960;6.830;2023-01-08T05:22:26;9.90;84.60
14733;DHT22;7457;50.960;6.830;2023-01-08T05:24:52;9.90;84.30
14733;DHT22;7457;50.960;6.830;2023-01-08T05:27:19;10.00;84.40
14733;DHT22;7457;50.960;6.830;2023-01-08T05:29:45;10.00;84.40
14733;DHT22;7457;50.960;6.830;2023-01-08T05:32:14;9.90;84.30
14733;DHT22;7457;50.960;6.830;2023-01-08T05:34:40;9.90;84.30
14733;DHT22;7457;50.960;6.830;2023-01-08T05:37:06;9.90;84.20
14733;DHT22;7457;50.960;6.830;2023-01-08T05:39:32;9.90;84.20
14733;DHT22;7457;50.960;6.830;2023-01-08T05:41:57;9.90;84.20
14733;DHT22;7457;50.960;6.830;2023-01-08T05:44:23;9.80;84.10
14733;DHT22;7457;50.960;6.830;2023-01-08T05:46:48;9.80;84.10
14733;DHT22;7457;50.960;6.830;2023-01-08T05:49:14;9.80;84.10
14733;DHT22;7457;50.960;6.830;2023-01-08T05:51:39;9.80;84.10
14733;DHT22;7457;50.960;6.830;2023-01-08T05:54:05;9.80;84.00
14733;DHT22;7457;50.960;6.830;2023-01-08T05:56:31;9.80;83.90
14733;DHT22;7457;50.960;6.830;2023-01-08T05:58:56;9.80;83.90
14733;DHT22;7457;50.960;6.830;2023-01-08T06:01:22;9.80;83.90
14733;DHT22;7457;50.960;6.830;2023-01-08T06:03:47;9.70;83.90
14733;DHT22;7457;50.960;6.830;2023-01-08T06:06:13;9.70;83.90
14733;DHT22;7457;50.960;6.830;2023-01-08T06:08:40;9.70;83.90
14733;DHT22;7457;50.960;6.830;2023-01-08T06:11:07;9.70;84.00
14733;DHT22;7457;50.960;6.830;2023-01-08T06:13:34;9.70;84.00
14733;DHT22;7457;50.960;6.830;2023-01-08T06:16:00;9.60;84.10
14733;DHT22;7457;50.960;6.830;2023-01-08T06:18:27;9.60;84.20
14733;DHT22;7457;50.960;6.830;2023-01-08T06:20:53;9.60;84.20
14733;DHT22;7457;50.960;6.830;2023-01-08T06:23:18;9.60;84.20
14733;DHT22;7457;50.960;6.830;2023-01-08T06:25:44;9.60;84.20
14733;DHT22;7457;50.960;6.830;2023-01-08T06:28:15;9.60;84.00
14733;DHT22;7457;50.960;6.830;2023-01-08T06:30:41;9.60;83.90
14733;DHT22;7457;50.960;6.830;2023-01-08T06:33:07;9.60;83.80
14733;DHT22;7457;50.960;6.830;2023-01-08T06:35:32;9.60;83.80
14733;DHT22;7457;50.960;6.830;2023-01-08T06:37:58;9.70;83.60
14733;DHT22;7457;50.960;6.830;2023-01-08T06:40:23;9.70;83.40
14733;DHT22;7457;50.960;6.830;2023-01-08T06:42:49;9.70;83.20
14733;DHT22;7457;50.960;6.830;2023-01-08T06:45:15;9.80;83.20
14733;DHT22;7457;50.960;6.830;2023-01-08T06:47:40;9.80;83.00
14733;DHT22;7457;50.960;6.830;2023-01-08T06:50:07;9.80;82.80
14733;DHT22;7457;50.960;6.830;2023-01-08T06:52:33;9.80;82.70
14733;DHT22;7457;50.960;6.830;2023-01-08T06:54:59;9.80;82.80
14733;DHT22;7457;50.960;6.830;2023-01-08T06:57:24;9.90;83.20
14733;DHT22;7457;50.960;6.830;2023-01-08T06:59:50;9.70;83.60
14733;DHT22;7457;50.960;6.830;2023-01-08T07:02:17;9.50;84.00
14733;DHT22;7457;50.960;6.830;2023-01-08T07:04:43;9.30;84.00
14733;DHT22;7457;50.960;6.830;2023-01-08T07:07:12;9.00;84.50
14733;DHT22;7457;50.960;6.830;2023-01-08T07:09:39;8.80;85.30
14733;DHT22;7457;50.960;6.830;2023-01-08T07:12:04;8.50;86.10
14733;DHT22;7457;50.960;6.830;2023-01-08T07:14:30;8.40;86.80
14733;DHT22;7457;50.960;6.830;2023-01-08T07:16:56;8.30;87.40
14733;DHT22;7457;50.960;6.830;2023-01-08T07:19:21;8.20;87.80
14733;DHT22;7457;50.960;6.830;2023-01-08T07:21:47;8.10;88.00
14733;DHT22;7457;50.960;6.830;2023-01-08T07:24:12;8.10;88.20
14733;DHT22;7457;50.960;6.830;2023-01-08T07:26:38;8.10;88.30
14733;DHT22;7457;50.960;6.830;2023-01-08T07:29:04;8.00;88.40
14733;DHT22;7457;50.960;6.830;2023-01-08T07:31:30;8.00;88.50
14733;DHT22;7457;50.960;6.830;2023-01-08T07:33:55;8.00;88.70
14733;DHT22;7457;50.960;6.830;2023-01-08T07:36:21;8.00;88.90
14733;DHT22;7457;50.960;6.830;2023-01-08T07:38:49;8.00;89.00
14733;DHT22;7457;50.960;6.830;2023-01-08T07:41:15;8.00;89.00
14733;DHT22;7457;50.960;6.830;2023-01-08T07:43:41;8.00;89.00
14733;DHT22;7457;50.960;6.830;2023-01-08T07:46:07;8.10;89.00
14733;DHT22;7457;50.960;6.830;2023-01-08T07:48:33;8.10;88.90
14733;DHT22;7457;50.960;6.830;2023-01-08T07:51:02;8.10;88.90
14733;DHT22;7457;50.960;6.830;2023-01-08T07:53:28;8.10;88.90
14733;DHT22;7457;50.960;6.830;2023-01-08T07:56:04;8.10;88.90
14733;DHT22;7457;50.960;6.830;2023-01-08T07:58:31;8.10;88.90
14733;DHT22;7457;50.960;6.830;2023-01-08T08:00:57;8.20;88.90
14733;DHT22;7457;50.960;6.830;2023-01-08T08:03:23;8.20;88.70
14733;DHT22;7457;50.960;6.830;2023-01-08T08:05:49;8.30;88.50
14733;DHT22;7457;50.960;6.830;2023-01-08T08:08:15;8.30;88.30
14733;DHT22;7457;50.960;6.830;2023-01-08T08:10:41;8.40;88.10
14733;DHT22;7457;50.960;6.830;2023-01-08T08:13:08;8.40;87.90
14733;DHT22;7457;50.960;6.830;2023-01-08T08:15:34;8.50;87.80
14733;DHT22;7457;50.960;6.830;2023-01-08T08:18:00;8.50;87.60
14733;DHT22;7457;50.960;6.830;2023-01-08T08:20:26;8.50;87.50
14733;DHT22;7457;50.960;6.830;2023-01-08T08:22:52;8.60;87.30
14733;DHT22;7457;50.960;6.830;2023-01-08T08:25:24;8.60;87.10
14733;DHT22;7457;50.960;6.830;2023-01-08T08:27:49;8.60;87.00
14733;DHT22;7457;50.960;6.830;2023-01-08T08:30:15;8.70;87.10
14733;DHT22;7457;50.960;6.830;2023-01-08T08:32:40;8.70;87.20
14733;DHT22;7457;50.960;6.830;2023-01-08T08:35:06;8.70;87.10
14733;DHT22;7457;50.960;6.830;2023-01-08T08:37:32;8.70;87.10
14733;DHT22;7457;50.960;6.830;2023-01-08T08:39:57;8.70;87.20
14733;DHT22;7457;50.960;6.830;2023-01-08T08:42:23;8.70;87.40
14733;DHT22;7457;50.960;6.830;2023-01-08T08:44:49;8.70;87.40
14733;DHT22;7457;50.960;6.830;2023-01-08T08:47:14;8.70;87.00
14733;DHT22;7457;50.960;6.830;2023-01-08T08:49:40;8.70;86.70
14733;DHT22;7457;50.960;6.830;2023-01-08T08:52:05;8.70;86.50
14733;DHT22;7457;50.960;6.830;2023-01-08T08:54:31;8.70;86.10
14733;DHT22;7457;50.960;6.830;2023-01-08T08:56:57;8.70;85.70
14733;DHT22;7457;50.960;6.830;2023-01-08T08:59:22;8.70;85.70
14733;DHT22;7457;50.960;6.830;2023-01-08T09:01:48;8.70;85.60
14733;DHT22;7457;50.960;6.830;2023-01-08T09:04:13;8.70;85.60
14733;DHT22;7457;50.960;6.830;2023-01-08T09:06:39;8.70;85.80
14733;DHT22;7457;50.960;6.830;2023-01-08T09:09:05;8.70;86.70
14733;DHT22;7457;50.960;6.830;2023-01-08T09:11:30;8.70;86.60
14733;DHT22;7457;50.960;6.830;2023-01-08T09:13:56;8.70;86.00
14733;DHT22;7457;50.960;6.830;2023-01-08T09:16:21;8.70;85.80
14733;DHT22;7457;50.960;6.830;2023-01-08T09:18:47;8.70;85.80
14733;DHT22;7457;50.960;6.830;2023-01-08T09:21:14;8.60;85.80
14733;DHT22;7457;50.960;6.830;2023-01-08T09:23:39;8.60;86.00
14733;DHT22;7457;50.960;6.830;2023-01-08T09:26:05;8.60;86.10
14733;DHT22;7457;50.960;6.830;2023-01-08T09:28:31;8.60;86.60
14733;DHT22;7457;50.960;6.830;2023-01-08T09:31:01;8.70;87.30
14733;DHT22;7457;50.960;6.830;2023-01-08T09:33:28;8.90;88.30
14733;DHT22;7457;50.960;6.830;2023-01-08T09:35:53;9.10;88.60
14733;DHT22;7457;50.960;6.830;2023-01-08T09:38:19;9.40;88.60
14733;DHT22;7457;50.960;6.830;2023-01-08T09:41:01;9.80;88.10
14733;DHT22;7457;50.960;6.830;2023-01-08T09:43:30;10.20;87.30
14733;DHT22;7457;50.960;6.830;2023-01-08T09:45:59;10.50;86.20
14733;DHT22;7457;50.960;6.830;2023-01-08T09:48:33;10.80;85.10
14733;DHT22;7457;50.960;6.830;2023-01-08T09:51:00;11.10;84.10
14733;DHT22;7457;50.960;6.830;2023-01-08T09:53:26;11.20;81.50
14733;DHT22;7457;50.960;6.830;2023-01-08T09:56:02;11.10;81.80
14733;DHT22;7457;50.960;6.830;2023-01-08T09:58:53;11.10;79.70
14733;DHT22;7457;50.960;6.830;2023-01-08T10:01:30;11.00;81.10
14733;DHT22;7457;50.960;6.830;2023-01-08T10:04:04;10.80;80.20
14733;DHT22;7457;50.960;6.830;2023-01-08T10:06:30;10.80;83.70
14733;DHT22;7457;50.960;6.830;2023-01-08T10:08:57;11.20;84.00
14733;DHT22;7457;50.960;6.830;2023-01-08T10:11:25;11.80;83.10
14733;DHT22;7457;50.960;6.830;2023-01-08T10:13:54;12.10;82.50
14733;DHT22;7457;50.960;6.830;2023-01-08T10:16:25;12.60;81.00
14733;DHT22;7457;50.960;6.830;2023-01-08T10:18:52;12.90;79.60
14733;DHT22;7457;50.960;6.830;2023-01-08T10:21:17;13.00;76.20
14733;DHT22;7457;50.960;6.830;2023-01-08T10:23:52;12.90;78.40
14733;DHT22;7457;50.960;6.830;2023-01-08T10:26:30;13.10;77.30
14733;DHT22;7457;50.960;6.830;2023-01-08T10:29:15;13.50;77.10
14733;DHT22;7457;50.960;6.830;2023-01-08T10:31:52;13.80;76.30
14733;DHT22;7457;50.960;6.830;2023-01-08T10:36:50;13.40;71.70
14733;DHT22;7457;50.960;6.830;2023-01-08T10:39:27;12.80;71.90
14733;DHT22;7457;50.960;6.830;2023-01-08T10:41:56;12.30;73.60
14733;DHT22;7457;50.960;6.830;2023-01-08T10:44:27;11.90;74.60
14733;DHT22;7457;50.960;6.830;2023-01-08T10:46:54;11.50;75.00
14733;DHT22;7457;50.960;6.830;2023-01-08T10:49:37;11.30;76.10
14733;DHT22;7457;50.960;6.830;2023-01-08T10:52:30;11.30;76.20
14733;DHT22;7457;50.960;6.830;2023-01-08T10:55:09;11.60;78.90
14733;DHT22;7457;50.960;6.830;2023-01-08T10:57:35;12.00;74.00
14733;DHT22;7457;50.960;6.830;2023-01-08T11:00:01;12.00;73.70
14733;DHT22;7457;50.960;6.830;2023-01-08T11:04:55;11.60;74.20
14733;DHT22;7457;50.960;6.830;2023-01-08T11:07:22;11.50;74.90
14733;DHT22;7457;50.960;6.830;2023-01-08T11:09:49;11.50;75.50
14733;DHT22;7457;50.960;6.830;2023-01-08T11:12:35;12.00;77.70
14733;DHT22;7457;50.960;6.830;2023-01-08T11:17:39;12.90;71.80
14733;DHT22;7457;50.960;6.830;2023-01-08T11:20:28;12.70;70.20
14733;DHT22;7457;50.960;6.830;2023-01-08T11:23:24;12.50;70.70
14733;DHT22;7457;50.960;6.830;2023-01-08T11:28:55;11.90;71.90
14733;DHT22;7457;50.960;6.830;2023-01-08T11:31:32;11.70;72.60
14733;DHT22;7457;50.960;6.830;2023-01-08T11:34:21;11.60;72.90
14733;DHT22;7457;50.960;6.830;2023-01-08T11:36:53;11.40;73.30
14733;DHT22;7457;50.960;6.830;2023-01-08T11:39:20;11.40;73.80
14733;DHT22;7457;50.960;6.830;2023-01-08T11:49:53;11.30;74.50
14733;DHT22;7457;50.960;6.830;2023-01-08T12:00:41;11.40;75.70
14733;DHT22;7457;50.960;6.830;2023-01-08T12:03:35;11.60;78.70
14733;DHT22;7457;50.960;6.830;2023-01-08T12:11:59;12.30;72.80
14733;DHT22;7457;50.960;6.830;2023-01-08T12:14:36;12.10;72.50
14733;DHT22;7457;50.960;6.830;2023-01-08T12:17:44;11.90;72.80
14733;DHT22;7457;50.960;6.830;2023-01-08T12:23:05;11.50;74.00
14733;DHT22;7457;50.960;6.830;2023-01-08T12:31:16;11.30;74.80
14733;DHT22;7457;50.960;6.830;2023-01-08T12:33:50;11.30;75.10
14733;DHT22;7457;50.960;6.830;2023-01-08T12:36:23;11.30;75.30
14733;DHT22;7457;50.960;6.830;2023-01-08T12:38:57;11.20;75.40
14733;DHT22;7457;50.960;6.830;2023-01-08T12:41:24;11.10;75.30
14733;DHT22;7457;50.960;6.830;2023-01-08T12:46:26;11.00;75.80
14733;DHT22;7457;50.960;6.830;2023-01-08T12:48:53;11.00;76.10
14733;DHT22;7457;50.960;6.830;2023-01-08T12:51:37;11.10;76.50
14733;DHT22;7457;50.960;6.830;2023-01-08T12:57:01;11.10;76.60
14733;DHT22;7457;50.960;6.830;2023-01-08T13:02:43;11.30;77.00
14733;DHT22;7457;50.960;6.830;2023-01-08T13:05:30;11.30;77.90
14733;DHT22;7457;50.960;6.830;2023-01-08T13:08:00;11.40;77.90
14733;DHT22;7457;50.960;6.830;2023-01-08T13:13:02;11.50;76.80
14733;DHT22;7457;50.960;6.830;2023-01-08T13:15:29;11.40;76.20
14733;DHT22;7457;50.960;6.830;2023-01-08T13:18:16;11.30;76.90
14733;DHT22;7457;50.960;6.830;2023-01-08T13:20:56;11.20;76.10
14733;DHT22;7457;50.960;6.830;2023-01-08T13:23:33;11.20;76.30
14733;DHT22;7457;50.960;6.830;2023-01-08T13:26:01;11.20;76.80
14733;DHT22;7457;50.960;6.830;2023-01-08T13:28:40;11.20;76.40
14733;DHT22;7457;50.960;6.830;2023-01-08T13:33:49;11.10;76.10
14733;DHT22;7457;50.960;6.830;2023-01-08T13:38:43;10.90;76.10
14733;DHT22;7457;50.960;6.830;2023-01-08T13:41:26;10.80;76.00
14733;DHT22;7457;50.960;6.830;2023-01-08T13:44:15;10.70;76.10
14733;DHT22;7457;50.960;6.830;2023-01-08T13:46:42;10.70;76.40
14733;DHT22;7457;50.960;6.830;2023-01-08T13:49:41;10.60;76.40
14733;DHT22;7457;50.960;6.830;2023-01-08T13:52:33;10.70;77.40
14733;DHT22;7457;50.960;6.830;2023-01-08T13:55:05;10.70;77.00
14733;DHT22;7457;50.960;6.830;2023-01-08T13:57:39;10.80;76.20
14733;DHT22;7457;50.960;6.830;2023-01-08T14:00:13;10.80;75.80
14733;DHT22;7457;50.960;6.830;2023-01-08T14:02:43;10.70;75.50
14733;DHT22;7457;50.960;6.830;2023-01-08T14:05:28;10.70;75.40
14733;DHT22;7457;50.960;6.830;2023-01-08T14:07:54;10.60;75.60
14733;DHT22;7457;50.960;6.830;2023-01-08T14:10:21;10.50;75.50
14733;DHT22;7457;50.960;6.830;2023-01-08T14:12:48;10.40;75.50
14733;DHT22;7457;50.960;6.830;2023-01-08T14:15:21;10.40;75.80
14733;DHT22;7457;50.960;6.830;2023-01-08T14:17:47;10.30;75.90
14733;DHT22;7457;50.960;6.830;2023-01-08T14:20:20;10.30;75.80
14733;DHT22;7457;50.960;6.830;2023-01-08T14:22:47;10.20;75.90
14733;DHT22;7457;50.960;6.830;2023-01-08T14:25:16;10.10;76.00
14733;DHT22;7457;50.960;6.830;2023-01-08T14:27:54;10.10;76.00
14733;DHT22;7457;50.960;6.830;2023-01-08T14:30:20;10.00;76.20
14733;DHT22;7457;50.960;6.830;2023-01-08T14:32:46;10.00;76.40
14733;DHT22;7457;50.960;6.830;2023-01-08T14:35:15;9.90;76.60
14733;DHT22;7457;50.960;6.830;2023-01-08T14:37:42;9.90;76.90
14733;DHT22;7457;50.960;6.830;2023-01-08T14:40:15;9.90;77.00
14733;DHT22;7457;50.960;6.830;2023-01-08T14:42:43;10.00;77.20
14733;DHT22;7457;50.960;6.830;2023-01-08T14:47:47;10.10;76.70
14733;DHT22;7457;50.960;6.830;2023-01-08T14:50:36;10.10;76.70
14733;DHT22;7457;50.960;6.830;2023-01-08T14:55:48;10.10;76.70
14733;DHT22;7457;50.960;6.830;2023-01-08T14:58:20;10.10;76.60
14733;DHT22;7457;50.960;6.830;2023-01-08T15:00:51;10.20;76.70
14733;DHT22;7457;50.960;6.830;2023-01-08T15:03:39;10.20;76.90
14733;DHT22;7457;50.960;6.830;2023-01-08T15:06:06;10.20;76.80
14733;DHT22;7457;50.960;6.830;2023-01-08T15:08:44;10.10;76.70
14733;DHT22;7457;50.960;6.830;2023-01-08T15:11:26;10.20;76.90
14733;DHT22;7457;50.960;6.830;2023-01-08T15:13:53;10.10;76.90
14733;DHT22;7457;50.960;6.830;2023-01-08T15:16:32;10.20;76.40
14733;DHT22;7457;50.960;6.830;2023-01-08T15:19:05;10.20;76.30
14733;DHT22;7457;50.960;6.830;2023-01-08T15:21:32;10.10;76.10
14733;DHT22;7457;50.960;6.830;2023-01-08T15:23:59;10.10;75.90
14733;DHT22;7457;50.960;6.830;2023-01-08T15:26:26;10.10;75.70
14733;DHT22;7457;50.960;6.830;2023-01-08T15:28:59;10.00;75.60
14733;DHT22;7457;50.960;6.830;2023-01-08T15:34:07;9.90;75.10
14733;DHT22;7457;50.960;6.830;2023-01-08T15:36:33;9.90;74.90
14733;DHT22;7457;50.960;6.830;2023-01-08T15:38:58;9.90;74.90
14733;DHT22;7457;50.960;6.830;2023-01-08T15:41:24;9.80;75.20
14733;DHT22;7457;50.960;6.830;2023-01-08T15:44:09;9.70;75.40
14733;DHT22;7457;50.960;6.830;2023-01-08T15:46:37;9.60;75.60
14733;DHT22;7457;50.960;6.830;2023-01-08T15:49:03;9.60;75.80
14733;DHT22;7457;50.960;6.830;2023-01-08T15:51:31;9.50;76.00
14733;DHT22;7457;50.960;6.830;2023-01-08T15:53:58;9.40;76.10
14733;DHT22;7457;50.960;6.830;2023-01-08T15:56:23;9.40;76.20
14733;DHT22;7457;50.960;6.830;2023-01-08T15:58:49;9.40;76.20
14733;DHT22;7457;50.960;6.830;2023-01-08T16:01:14;9.30;76.30
14733;DHT22;7457;50.960;6.830;2023-01-08T16:03:40;9.20;76.40
14733;DHT22;7457;50.960;6.830;2023-01-08T16:06:06;9.20;76.50
14733;DHT22;7457;50.960;6.830;2023-01-08T16:08:32;9.20;76.60
14733;DHT22;7457;50.960;6.830;2023-01-08T16:10:58;9.20;76.70
14733;DHT22;7457;50.960;6.830;2023-01-08T16:13:23;9.10;76.70
14733;DHT22;7457;50.960;6.830;2023-01-08T16:15:49;9.00;76.80
14733;DHT22;7457;50.960;6.830;2023-01-08T16:18:14;9.00;77.00
14733;DHT22;7457;50.960;6.830;2023-01-08T16:20:40;9.00;77.10
14733;DHT22;7457;50.960;6.830;2023-01-08T16:23:06;8.90;77.20
14733;DHT22;7457;50.960;6.830;2023-01-08T16:25:31;8.90;77.40
14733;DHT22;7457;50.960;6.830;2023-01-08T16:27:57;8.80;77.50
14733;DHT22;7457;50.960;6.830;2023-01-08T16:30:23;8.80;77.60
14733;DHT22;7457;50.960;6.830;2023-01-08T16:32:50;8.80;77.60
14733;DHT22;7457;50.960;6.830;2023-01-08T16:35:16;8.90;77.70
14733;DHT22;7457;50.960;6.830;2023-01-08T16:37:42;8.80;77.80
14733;DHT22;7457;50.960;6.830;2023-01-08T16:40:08;8.80;77.90
14733;DHT22;7457;50.960;6.830;2023-01-08T16:42:34;8.80;78.10
14733;DHT22;7457;50.960;6.830;2023-01-08T16:45:00;8.70;78.20
14733;DHT22;7457;50.960;6.830;2023-01-08T16:47:25;8.70;78.30
14733;DHT22;7457;50.960;6.830;2023-01-08T16:49:51;8.70;78.40
14733;DHT22;7457;50.960;6.830;2023-01-08T16:52:17;8.60;78.60
14733;DHT22;7457;50.960;6.830;2023-01-08T16:54:43;8.50;78.80
14733;DHT22;7457;50.960;6.830;2023-01-08T16:57:09;8.50;79.00
14733;DHT22;7457;50.960;6.830;2023-01-08T16:59:35;8.40;79.10
14733;DHT22;7457;50.960;6.830;2023-01-08T17:02:00;8.40;79.20
14733;DHT22;7457;50.960;6.830;2023-01-08T17:04:27;8.30;79.40
14733;DHT22;7457;50.960;6.830;2023-01-08T17:06:53;8.20;79.70
14733;DHT22;7457;50.960;6.830;2023-01-08T17:09:19;8.20;79.70
14733;DHT22;7457;50.960;6.830;2023-01-08T17:11:45;8.20;79.80
14733;DHT22;7457;50.960;6.830;2023-01-08T17:14:12;8.10;79.80
14733;DHT22;7457;50.960;6.830;2023-01-08T17:16:37;8.10;79.80
14733;DHT22;7457;50.960;6.830;2023-01-08T17:19:03;8.00;80.10
14733;DHT22;7457;50.960;6.830;2023-01-08T17:21:29;7.90;80.30
14733;DHT22;7457;50.960;6.830;2023-01-08T17:23:55;7.80;80.50
14733;DHT22;7457;50.960;6.830;2023-01-08T17:26:21;7.70;80.70
14733;DHT22;7457;50.960;6.830;2023-01-08T17:28:46;7.70;81.00
14733;DHT22;7457;50.960;6.830;2023-01-08T17:31:15;7.60;81.10